createdAt,value
2023-04-15T13:12:09.455Z,9.07
2023-04-15T13:14:38.878Z,11.40
2023-04-15T13:17:10.414Z,9.50
2023-04-15T13:19:37.114Z,11.20
2023-04-15T13:22:06.319Z,8.50
2023-04-15T13:24:34.762Z,8.20
2023-04-15T13:27:01.564Z,7.83
2023-04-15T13:29:28.524Z,9.70
2023-04-15T13:31:55.827Z,8.20
2023-04-15T13:34:22.717Z,8.10
2023-04-15T13:36:49.617Z,9.20
2023-04-15T13:39:16.399Z,7.53
2023-04-15T13:41:43.131Z,7.73
2023-04-15T13:44:09.890Z,9.27
2023-04-15T13:46:39.629Z,7.93
2023-04-15T13:49:06.355Z,7.47
2023-04-15T13:51:34.576Z,8.47
2023-04-15T13:54:01.348Z,10.13
2023-04-15T13:56:28.808Z,7.97
2023-04-15T13:59:01.823Z,8.53
2023-04-15T14:01:29.968Z,8.33
2023-04-15T14:03:56.955Z,10.30
2023-04-15T14:06:24.648Z,7.27
2023-04-15T14:08:51.524Z,13.27
2023-04-15T14:11:18.293Z,6.73
2023-04-15T14:13:47.660Z,7.30
2023-04-15T14:16:16.684Z,7.20
2023-04-15T14:18:44.749Z,6.13
2023-04-15T14:21:14.542Z,7.10
2023-04-15T14:23:41.430Z,6.57
2023-04-15T14:26:08.452Z,6.43
2023-04-15T14:28:35.393Z,6.23
2023-04-15T14:31:02.266Z,8.00
2023-04-15T14:33:29.028Z,5.80
2023-04-15T14:35:56.968Z,9.27
2023-04-15T14:38:24.855Z,4.90
2023-04-15T14:40:51.512Z,7.53
2023-04-15T14:43:18.332Z,6.23
2023-04-15T14:45:45.599Z,6.87
2023-04-15T14:48:13.093Z,5.37
2023-04-15T14:50:40.656Z,5.87
2023-04-15T14:53:07.640Z,6.10
2023-04-15T14:55:34.639Z,6.73
2023-04-15T14:58:02.390Z,7.77
2023-04-15T15:00:29.094Z,7.83
2023-04-15T15:02:55.881Z,7.63
2023-04-15T15:05:22.902Z,5.77
2023-04-15T15:07:49.847Z,5.97
2023-04-15T15:10:16.668Z,6.90
2023-04-15T15:13:01.228Z,8.50
2023-04-15T15:15:29.057Z,6.43
2023-04-15T15:17:56.252Z,6.10
2023-04-15T15:20:24.365Z,7.80
2023-04-15T15:22:51.406Z,7.70
2023-04-15T15:25:18.302Z,8.13
2023-04-15T15:27:45.125Z,6.43
2023-04-15T15:30:14.860Z,8.90
2023-04-15T15:32:42.570Z,7.30
2023-04-15T15:35:10.861Z,8.40
2023-04-15T15:37:38.221Z,13.10
2023-04-15T15:40:05.724Z,10.60
2023-04-15T15:42:32.869Z,9.70
2023-04-15T15:44:59.915Z,11.53
2023-04-15T15:47:27.060Z,9.27
2023-04-15T15:49:54.865Z,8.17
2023-04-15T15:52:21.807Z,9.10
2023-04-15T15:54:48.805Z,8.67
2023-04-15T15:57:15.866Z,10.63
2023-04-15T15:59:43.777Z,13.53
2023-04-15T16:02:11.825Z,9.33
2023-04-15T16:04:39.471Z,11.10
2023-04-15T16:07:06.605Z,10.73
2023-04-15T16:09:33.360Z,11.27
2023-04-15T16:12:04.050Z,11.73
2023-04-15T16:14:30.935Z,11.23
2023-04-15T16:16:58.111Z,14.60
2023-04-15T16:19:24.916Z,13.70
2023-04-15T16:21:51.762Z,11.90
2023-04-15T16:24:18.529Z,10.63
2023-04-15T16:26:45.379Z,11.10
2023-04-15T16:29:12.212Z,10.50
2023-04-15T16:31:40.076Z,9.90
2023-04-15T16:34:07.289Z,10.90
2023-04-15T16:36:34.990Z,11.30
2023-04-15T16:39:02.098Z,10.73
2023-04-15T16:41:29.227Z,10.90
2023-04-15T16:43:58.611Z,9.37
2023-04-15T16:46:26.545Z,13.43
2023-04-15T16:48:53.577Z,11.07
2023-04-15T16:51:20.283Z,11.43
2023-04-15T16:53:47.057Z,9.60
2023-04-15T16:56:13.977Z,10.60
2023-04-15T16:58:40.709Z,10.60
2023-04-15T17:01:08.047Z,11.50
2023-04-15T17:03:35.030Z,10.80
2023-04-15T17:06:01.885Z,11.23
2023-04-15T17:08:28.750Z,12.20
2023-04-15T17:10:59.207Z,14.50
2023-04-15T17:13:26.507Z,11.87
2023-04-15T17:15:55.744Z,10.40
2023-04-15T17:18:22.797Z,9.40
2023-04-15T17:20:49.554Z,12.43
2023-04-15T17:23:16.484Z,12.43
2023-04-15T17:25:49.157Z,11.63
2023-04-15T17:28:16.051Z,11.33
2023-04-15T17:30:42.875Z,9.13
2023-04-15T17:33:53.260Z,11.00
2023-04-15T17:35:57.916Z,10.90
2023-04-15T17:38:24.740Z,12.90
2023-04-15T17:40:51.325Z,10.07
2023-04-15T17:43:18.828Z,14.60
2023-04-15T17:45:47.510Z,11.17
2023-04-15T17:48:15.909Z,10.67
2023-04-15T17:50:43.111Z,11.50
2023-04-15T17:53:09.996Z,10.67
2023-04-15T17:55:39.697Z,10.00
2023-04-15T17:58:06.490Z,9.60
2023-04-15T18:00:33.218Z,12.33
2023-04-15T18:03:00.020Z,11.00
2023-04-15T18:05:26.890Z,10.87
2023-04-15T18:07:53.570Z,10.40
2023-04-15T18:10:23.977Z,13.30
2023-04-15T18:12:50.882Z,13.73
2023-04-15T18:15:18.674Z,11.43
2023-04-15T18:17:45.779Z,13.27
2023-04-15T18:20:16.008Z,13.53
2023-04-15T18:22:43.571Z,12.50
2023-04-15T18:25:10.415Z,14.60
2023-04-15T18:27:39.377Z,13.63
2023-04-15T18:30:17.202Z,16.27
2023-04-15T18:32:44.150Z,16.33
2023-04-15T18:35:11.085Z,13.40
2023-04-15T18:37:38.085Z,14.00
2023-04-15T18:40:09.452Z,14.57
2023-04-15T18:42:36.529Z,11.80
2023-04-15T18:45:03.519Z,13.67
2023-04-15T18:47:30.403Z,12.50
2023-04-15T18:49:58.398Z,13.60
2023-04-15T18:52:25.214Z,15.40
2023-04-15T18:54:52.585Z,13.13
2023-04-15T18:57:23.533Z,15.93
2023-04-15T18:59:58.544Z,11.80
2023-04-15T19:02:25.638Z,11.83
2023-04-15T19:04:52.437Z,12.73
2023-04-15T19:07:19.281Z,12.80
2023-04-15T19:09:46.468Z,15.00
2023-04-15T19:12:13.153Z,12.90
2023-04-15T19:14:40.107Z,12.80
2023-04-15T19:17:06.977Z,11.83
2023-04-15T19:19:34.044Z,14.63
2023-04-15T19:22:01.679Z,15.83
2023-04-15T19:24:29.009Z,14.37
2023-04-15T19:26:57.233Z,14.87
2023-04-15T19:29:24.810Z,15.17
2023-04-15T19:31:51.665Z,12.90
2023-04-15T19:34:18.470Z,15.80
2023-04-15T19:36:45.458Z,12.03
2023-04-15T19:39:13.471Z,17.03
2023-04-15T19:41:40.352Z,16.07
2023-04-15T19:44:07.120Z,16.57
2023-04-15T19:46:33.875Z,17.30
2023-04-15T19:49:02.045Z,18.40
2023-04-15T19:51:29.919Z,84.07
2023-04-15T19:53:56.846Z,119.70
2023-04-15T19:56:24.229Z,136.50
2023-04-15T19:58:53.081Z,317.57
2023-04-15T20:01:20.406Z,68.77
2023-04-15T20:03:47.585Z,36.97
2023-04-15T20:06:15.402Z,30.13
2023-04-15T20:08:42.129Z,16.80
2023-04-15T20:11:09.685Z,16.20
2023-04-15T20:13:36.979Z,12.30
2023-04-15T20:16:05.979Z,16.17
